sensor_id;sensor_type;location;lat;lon;timestamp;temperature;humidity
11812;DHT22;5963;50.184;9.162;2022-12-19T00:01:25;-2.70;99.90
11812;DHT22;5963;50.184;9.162;2022-12-19T00:03:59;-2.60;99.90
11812;DHT22;5963;50.184;9.162;2022-12-19T00:06:36;-2.50;99.90
11812;DHT22;5963;50.184;9.162;2022-12-19T00:09:11;-2.60;99.90
11812;DHT22;5963;50.184;9.162;2022-12-19T00:11:41;-2.60;99.90
11812;DHT22;5963;50.184;9.162;2022-12-19T00:14:13;-2.60;99.90
11812;DHT22;5963;50.184;9.162;2022-12-19T00:16:43;-2.60;99.90
11812;DHT22;5963;50.184;9.162;2022-12-19T00:19:14;-2.60;99.90
11812;DHT22;5963;50.184;9.162;2022-12-19T00:21:45;-2.60;99.90
11812;DHT22;5963;50.184;9.162;2022-12-19T00:24:15;-2.60;99.90
11812;DHT22;5963;50.184;9.162;2022-12-19T00:26:49;-2.50;99.90
11812;DHT22;5963;50.184;9.162;2022-12-19T00:29:25;-2.50;99.90
11812;DHT22;5963;50.184;9.162;2022-12-19T00:31:54;-2.50;99.90
11812;DHT22;5963;50.184;9.162;2022-12-19T00:34:24;-2.50;99.90
11812;DHT22;5963;50.184;9.162;2022-12-19T00:36:54;-2.40;99.90
11812;DHT22;5963;50.184;9.162;2022-12-19T00:39:23;-2.30;99.90
11812;DHT22;5963;50.184;9.162;2022-12-19T00:41:53;-2.20;99.90
11812;DHT22;5963;50.184;9.162;2022-12-19T00:44:24;-2.30;99.90
11812;DHT22;5963;50.184;9.162;2022-12-19T00:46:56;-2.20;99.90
11812;DHT22;5963;50.184;9.162;2022-12-19T00:49:26;-2.20;99.90
11812;DHT22;5963;50.184;9.162;2022-12-19T00:51:57;-2.10;99.90
11812;DHT22;5963;50.184;9.162;2022-12-19T00:54:27;-2.10;99.90
11812;DHT22;5963;50.184;9.162;2022-12-19T00:56:57;-2.00;99.90
11812;DHT22;5963;50.184;9.162;2022-12-19T00:59:28;-2.10;99.90
11812;DHT22;5963;50.184;9.162;2022-12-19T01:01:58;-2.10;99.90
11812;DHT22;5963;50.184;9.162;2022-12-19T01:04:27;-2.00;99.90
11812;DHT22;5963;50.184;9.162;2022-12-19T01:07:02;-2.00;99.90
11812;DHT22;5963;50.184;9.162;2022-12-19T01:09:34;-2.00;99.90
11812;DHT22;5963;50.184;9.162;2022-12-19T01:12:04;-2.10;99.90
11812;DHT22;5963;50.184;9.162;2022-12-19T01:14:55;-2.10;99.90
11812;DHT22;5963;50.184;9.162;2022-12-19T01:17:32;-2.00;99.90
11812;DHT22;5963;50.184;9.162;2022-12-19T01:20:14;-2.00;99.90
11812;DHT22;5963;50.184;9.162;2022-12-19T01:22:57;-2.10;99.90
11812;DHT22;5963;50.184;9.162;2022-12-19T01:25:28;-2.10;99.90
11812;DHT22;5963;50.184;9.162;2022-12-19T01:27:58;-2.10;99.90
11812;DHT22;5963;50.184;9.162;2022-12-19T01:30:29;-2.10;99.90
11812;DHT22;5963;50.184;9.162;2022-12-19T01:33:00;-2.20;99.90
11812;DHT22;5963;50.184;9.162;2022-12-19T01:35:30;-2.10;99.90
11812;DHT22;5963;50.184;9.162;2022-12-19T01:38:00;-2.20;99.90
11812;DHT22;5963;50.184;9.162;2022-12-19T01:40:46;-2.10;99.90
11812;DHT22;5963;50.184;9.162;2022-12-19T01:43:22;-1.90;99.90
11812;DHT22;5963;50.184;9.162;2022-12-19T01:45:56;-1.80;99.90
11812;DHT22;5963;50.184;9.162;2022-12-19T01:48:29;-1.90;99.90
11812;DHT22;5963;50.184;9.162;2022-12-19T01:51:10;-2.00;99.90
11812;DHT22;5963;50.184;9.162;2022-12-19T01:53:45;-2.10;99.90
11812;DHT22;5963;50.184;9.162;2022-12-19T01:56:18;-2.20;99.90
11812;DHT22;5963;50.184;9.162;2022-12-19T01:58:51;-2.20;99.90
11812;DHT22;5963;50.184;9.162;2022-12-19T02:01:36;-2.20;99.90
11812;DHT22;5963;50.184;9.162;2022-12-19T02:04:19;-2.30;99.90
11812;DHT22;5963;50.184;9.162;2022-12-19T02:06:57;-2.30;99.90
11812;DHT22;5963;50.184;9.162;2022-12-19T02:09:44;-2.20;99.90
11812;DHT22;5963;50.184;9.162;2022-12-19T02:12:25;-2.20;99.90
11812;DHT22;5963;50.184;9.162;2022-12-19T02:15:02;-2.10;99.90
11812;DHT22;5963;50.184;9.162;2022-12-19T02:17:41;-2.00;99.90
11812;DHT22;5963;50.184;9.162;2022-12-19T02:20:55;-2.00;99.90
11812;DHT22;5963;50.184;9.162;2022-12-19T02:23:50;-2.00;99.90
11812;DHT22;5963;50.184;9.162;2022-12-19T02:30:01;-2.00;99.90
11812;DHT22;5963;50.184;9.162;2022-12-19T02:32:36;-2.10;99.90
11812;DHT22;5963;50.184;9.162;2022-12-19T02:35:20;-2.10;99.90
11812;DHT22;5963;50.184;9.162;2022-12-19T02:37:57;-2.00;99.90
11812;DHT22;5963;50.184;9.162;2022-12-19T02:40:37;-2.00;99.90
11812;DHT22;5963;50.184;9.162;2022-12-19T02:43:09;-1.90;99.90
11812;DHT22;5963;50.184;9.162;2022-12-19T02:45:42;-1.90;99.90
11812;DHT22;5963;50.184;9.162;2022-12-19T02:48:15;-1.90;99.90
11812;DHT22;5963;50.184;9.162;2022-12-19T02:50:47;-1.90;99.90
11812;DHT22;5963;50.184;9.162;2022-12-19T02:53:18;-1.90;99.90
11812;DHT22;5963;50.184;9.162;2022-12-19T02:56:00;-2.00;99.90
11812;DHT22;5963;50.184;9.162;2022-12-19T02:58:49;-1.90;99.90
11812;DHT22;5963;50.184;9.162;2022-12-19T03:01:30;-1.80;99.90
11812;DHT22;5963;50.184;9.162;2022-12-19T03:04:13;-1.80;99.90
11812;DHT22;5963;50.184;9.162;2022-12-19T03:06:47;-1.90;99.90
11812;DHT22;5963;50.184;9.162;2022-12-19T03:09:22;-2.00;99.90
11812;DHT22;5963;50.184;9.162;2022-12-19T03:11:58;-2.00;99.90
11812;DHT22;5963;50.184;9.162;2022-12-19T03:14:30;-1.90;99.90
11812;DHT22;5963;50.184;9.162;2022-12-19T03:17:02;-1.90;99.90
11812;DHT22;5963;50.184;9.162;2022-12-19T03:19:34;-1.80;99.90
11812;DHT22;5963;50.184;9.162;2022-12-19T03:22:05;-1.80;99.90
11812;DHT22;5963;50.184;9.162;2022-12-19T03:24:35;-1.80;99.90
11812;DHT22;5963;50.184;9.162;2022-12-19T03:27:10;-1.90;99.90
11812;DHT22;5963;50.184;9.162;2022-12-19T03:29:45;-1.80;99.90
11812;DHT22;5963;50.184;9.162;2022-12-19T03:32:17;-1.80;99.90
11812;DHT22;5963;50.184;9.162;2022-12-19T03:34:56;-1.80;99.90
11812;DHT22;5963;50.184;9.162;2022-12-19T03:37:33;-1.90;99.90
11812;DHT22;5963;50.184;9.162;2022-12-19T03:40:05;-1.80;99.90
11812;DHT22;5963;50.184;9.162;2022-12-19T03:42:39;-1.80;99.90
11812;DHT22;5963;50.184;9.162;2022-12-19T03:45:32;-1.80;99.90
11812;DHT22;5963;50.184;9.162;2022-12-19T03:48:05;-1.80;99.90
11812;DHT22;5963;50.184;9.162;2022-12-19T03:50:45;-1.70;99.90
11812;DHT22;5963;50.184;9.162;2022-12-19T03:53:25;-1.70;99.90
11812;DHT22;5963;50.184;9.162;2022-12-19T03:56:02;-1.60;99.90
11812;DHT22;5963;50.184;9.162;2022-12-19T03:58:37;-1.60;99.90
11812;DHT22;5963;50.184;9.162;2022-12-19T04:01:09;-1.60;99.90
11812;DHT22;5963;50.184;9.162;2022-12-19T04:03:39;-1.60;99.90
11812;DHT22;5963;50.184;9.162;2022-12-19T04:06:14;-1.50;99.90
11812;DHT22;5963;50.184;9.162;2022-12-19T04:08:45;-1.50;99.90
11812;DHT22;5963;50.184;9.162;2022-12-19T04:11:21;-1.50;99.90
11812;DHT22;5963;50.184;9.162;2022-12-19T04:13:54;-1.60;99.90
11812;DHT22;5963;50.184;9.162;2022-12-19T04:16:31;-1.60;99.90
11812;DHT22;5963;50.184;9.162;2022-12-19T04:19:07;-1.50;99.90
11812;DHT22;5963;50.184;9.162;2022-12-19T04:21:44;-1.40;99.90
11812;DHT22;5963;50.184;9.162;2022-12-19T04:24:20;-1.40;99.90
11812;DHT22;5963;50.184;9.162;2022-12-19T04:26:54;-1.40;99.90
11812;DHT22;5963;50.184;9.162;2022-12-19T04:29:26;-1.30;99.90
11812;DHT22;5963;50.184;9.162;2022-12-19T04:31:57;-1.40;99.90
11812;DHT22;5963;50.184;9.162;2022-12-19T04:34:26;-1.40;99.90
11812;DHT22;5963;50.184;9.162;2022-12-19T04:36:57;-1.40;99.90
11812;DHT22;5963;50.184;9.162;2022-12-19T04:39:28;-1.30;99.90
11812;DHT22;5963;50.184;9.162;2022-12-19T04:42:02;-1.30;99.90
11812;DHT22;5963;50.184;9.162;2022-12-19T04:44:32;-1.30;99.90
11812;DHT22;5963;50.184;9.162;2022-12-19T04:47:01;-1.30;99.90
11812;DHT22;5963;50.184;9.162;2022-12-19T04:49:32;-1.20;99.90
11812;DHT22;5963;50.184;9.162;2022-12-19T04:52:03;-1.20;99.90
11812;DHT22;5963;50.184;9.162;2022-12-19T04:54:35;-1.20;99.90
11812;DHT22;5963;50.184;9.162;2022-12-19T04:57:05;-1.20;99.90
11812;DHT22;5963;50.184;9.162;2022-12-19T04:59:42;-1.20;99.90
11812;DHT22;5963;50.184;9.162;2022-12-19T05:02:12;-1.10;99.90
11812;DHT22;5963;50.184;9.162;2022-12-19T05:04:42;-1.20;99.90
11812;DHT22;5963;50.184;9.162;2022-12-19T05:07:14;-1.20;99.90
11812;DHT22;5963;50.184;9.162;2022-12-19T05:09:44;-1.20;99.90
11812;DHT22;5963;50.184;9.162;2022-12-19T05:12:14;-1.10;99.90
11812;DHT22;5963;50.184;9.162;2022-12-19T05:14:43;-1.00;99.90
11812;DHT22;5963;50.184;9.162;2022-12-19T05:17:15;-1.10;99.90
11812;DHT22;5963;50.184;9.162;2022-12-19T05:19:48;-1.10;99.90
11812;DHT22;5963;50.184;9.162;2022-12-19T05:22:19;-1.00;99.90
11812;DHT22;5963;50.184;9.162;2022-12-19T05:24:51;-1.00;99.90
11812;DHT22;5963;50.184;9.162;2022-12-19T05:27:23;-1.00;99.90
11812;DHT22;5963;50.184;9.162;2022-12-19T05:29:57;-1.00;99.90
11812;DHT22;5963;50.184;9.162;2022-12-19T05:32:30;-0.90;99.90
11812;DHT22;5963;50.184;9.162;2022-12-19T05:35:05;-0.90;99.90
11812;DHT22;5963;50.184;9.162;2022-12-19T05:37:38;-0.90;99.90
11812;DHT22;5963;50.184;9.162;2022-12-19T05:40:22;-0.80;99.90
11812;DHT22;5963;50.184;9.162;2022-12-19T05:42:52;-0.90;99.90
11812;DHT22;5963;50.184;9.162;2022-12-19T05:45:22;-1.00;99.90
11812;DHT22;5963;50.184;9.162;2022-12-19T05:47:52;-1.00;99.90
11812;DHT22;5963;50.184;9.162;2022-12-19T05:50:28;-1.00;99.90
11812;DHT22;5963;50.184;9.162;2022-12-19T05:53:00;-0.90;99.90
11812;DHT22;5963;50.184;9.162;2022-12-19T05:55:30;-1.00;99.90
11812;DHT22;5963;50.184;9.162;2022-12-19T05:58:00;-1.10;99.90
11812;DHT22;5963;50.184;9.162;2022-12-19T06:00:30;-1.10;99.90
11812;DHT22;5963;50.184;9.162;2022-12-19T06:03:00;-1.10;99.90
11812;DHT22;5963;50.184;9.162;2022-12-19T06:05:30;-1.10;99.90
11812;DHT22;5963;50.184;9.162;2022-12-19T06:08:07;-1.10;99.90
11812;DHT22;5963;50.184;9.162;2022-12-19T06:10:38;-1.00;99.90
11812;DHT22;5963;50.184;9.162;2022-12-19T06:13:08;-1.00;99.90
11812;DHT22;5963;50.184;9.162;2022-12-19T06:15:56;-1.00;99.90
11812;DHT22;5963;50.184;9.162;2022-12-19T06:18:26;-0.90;99.90
11812;DHT22;5963;50.184;9.162;2022-12-19T06:20:56;-1.00;99.90
11812;DHT22;5963;50.184;9.162;2022-12-19T06:23:27;-0.90;99.90
11812;DHT22;5963;50.184;9.162;2022-12-19T06:25:58;-0.90;99.90
11812;DHT22;5963;50.184;9.162;2022-12-19T06:28:29;-0.80;99.90
11812;DHT22;5963;50.184;9.162;2022-12-19T06:31:04;-0.80;99.90
11812;DHT22;5963;50.184;9.162;2022-12-19T06:33:35;-0.80;99.90
11812;DHT22;5963;50.184;9.162;2022-12-19T06:36:08;-0.90;99.90
11812;DHT22;5963;50.184;9.162;2022-12-19T06:38:41;-0.70;99.90
11812;DHT22;5963;50.184;9.162;2022-12-19T06:41:15;-0.80;99.90
11812;DHT22;5963;50.184;9.162;2022-12-19T06:44:03;-0.80;99.90
11812;DHT22;5963;50.184;9.162;2022-12-19T06:46:34;-0.70;99.90
11812;DHT22;5963;50.184;9.162;2022-12-19T06:49:07;-0.80;99.90
11812;DHT22;5963;50.184;9.162;2022-12-19T06:51:38;-0.80;99.90
11812;DHT22;5963;50.184;9.162;2022-12-19T06:54:10;-0.80;99.90
11812;DHT22;5963;50.184;9.162;2022-12-19T06:56:44;-0.70;99.90
11812;DHT22;5963;50.184;9.162;2022-12-19T06:59:15;-0.70;99.90
11812;DHT22;5963;50.184;9.162;2022-12-19T07:01:49;-0.80;99.90
11812;DHT22;5963;50.184;9.162;2022-12-19T07:04:25;-0.80;99.90
11812;DHT22;5963;50.184;9.162;2022-12-19T07:06:56;-0.80;99.90
11812;DHT22;5963;50.184;9.162;2022-12-19T07:09:29;-0.80;99.90
11812;DHT22;5963;50.184;9.162;2022-12-19T07:11:59;-0.80;99.90
11812;DHT22;5963;50.184;9.162;2022-12-19T07:14:35;-0.80;99.90
11812;DHT22;5963;50.184;9.162;2022-12-19T07:17:05;-0.80;99.90
11812;DHT22;5963;50.184;9.162;2022-12-19T07:19:36;-0.80;99.90
11812;DHT22;5963;50.184;9.162;2022-12-19T07:22:08;-0.80;99.90
11812;DHT22;5963;50.184;9.162;2022-12-19T07:24:40;-0.70;99.90
11812;DHT22;5963;50.184;9.162;2022-12-19T07:27:10;-0.60;99.90
11812;DHT22;5963;50.184;9.162;2022-12-19T07:29:42;-0.70;99.90
11812;DHT22;5963;50.184;9.162;2022-12-19T07:32:15;-0.70;99.90
11812;DHT22;5963;50.184;9.162;2022-12-19T07:34:44;-0.70;99.90
11812;DHT22;5963;50.184;9.162;2022-12-19T07:37:14;-0.70;99.90
11812;DHT22;5963;50.184;9.162;2022-12-19T07:39:45;-0.70;99.90
11812;DHT22;5963;50.184;9.162;2022-12-19T07:42:15;-0.70;99.90
11812;DHT22;5963;50.184;9.162;2022-12-19T07:44:45;-0.70;99.90
11812;DHT22;5963;50.184;9.162;2022-12-19T07:47:15;-0.70;99.90
11812;DHT22;5963;50.184;9.162;2022-12-19T07:49:52;-0.60;99.90
11812;DHT22;5963;50.184;9.162;2022-12-19T07:52:24;-0.60;99.90
11812;DHT22;5963;50.184;9.162;2022-12-19T07:54:55;-0.70;99.90
11812;DHT22;5963;50.184;9.162;2022-12-19T07:57:27;-0.70;99.90
11812;DHT22;5963;50.184;9.162;2022-12-19T07:59:58;-0.60;99.90
11812;DHT22;5963;50.184;9.162;2022-12-19T08:02:28;-0.50;99.90
11812;DHT22;5963;50.184;9.162;2022-12-19T08:04:56;-0.60;99.90
11812;DHT22;5963;50.184;9.162;2022-12-19T08:07:26;-0.60;99.90
11812;DHT22;5963;50.184;9.162;2022-12-19T08:09:57;-0.60;99.90
11812;DHT22;5963;50.184;9.162;2022-12-19T08:12:26;-0.60;99.90
11812;DHT22;5963;50.184;9.162;2022-12-19T08:14:56;-0.50;99.90
11812;DHT22;5963;50.184;9.162;2022-12-19T08:17:27;-0.50;99.90
11812;DHT22;5963;50.184;9.162;2022-12-19T08:20:03;-0.50;99.90
11812;DHT22;5963;50.184;9.162;2022-12-19T08:22:33;-0.50;99.90
11812;DHT22;5963;50.184;9.162;2022-12-19T08:25:05;-0.50;99.90
11812;DHT22;5963;50.184;9.162;2022-12-19T08:27:34;-0.30;99.90
11812;DHT22;5963;50.184;9.162;2022-12-19T08:30:05;-0.20;99.90
11812;DHT22;5963;50.184;9.162;2022-12-19T08:32:36;-0.20;99.90
11812;DHT22;5963;50.184;9.162;2022-12-19T08:35:05;-0.20;99.90
11812;DHT22;5963;50.184;9.162;2022-12-19T08:37:36;-0.30;99.90
11812;DHT22;5963;50.184;9.162;2022-12-19T08:40:09;-0.20;99.90
11812;DHT22;5963;50.184;9.162;2022-12-19T08:42:39;-0.20;99.90
11812;DHT22;5963;50.184;9.162;2022-12-19T08:45:09;-0.20;99.90
11812;DHT22;5963;50.184;9.162;2022-12-19T08:47:39;-0.20;99.90
11812;DHT22;5963;50.184;9.162;2022-12-19T08:50:10;-0.20;99.90
11812;DHT22;5963;50.184;9.162;2022-12-19T08:52:41;-0.10;99.90
11812;DHT22;5963;50.184;9.162;2022-12-19T08:55:13;0.00;99.90
11812;DHT22;5963;50.184;9.162;2022-12-19T08:57:43;0.00;99.90
11812;DHT22;5963;50.184;9.162;2022-12-19T09:00:14;0.10;99.90
11812;DHT22;5963;50.184;9.162;2022-12-19T09:02:45;0.20;99.90
11812;DHT22;5963;50.184;9.162;2022-12-19T09:05:15;0.30;99.90
11812;DHT22;5963;50.184;9.162;2022-12-19T09:08:06;0.30;99.90
11812;DHT22;5963;50.184;9.162;2022-12-19T09:10:39;0.30;99.90
11812;DHT22;5963;50.184;9.162;2022-12-19T09:13:08;0.20;99.90
11812;DHT22;5963;50.184;9.162;2022-12-19T09:15:39;0.30;99.90
11812;DHT22;5963;50.184;9.162;2022-12-19T09:18:09;0.10;99.90
11812;DHT22;5963;50.184;9.162;2022-12-19T09:20:39;0.10;99.90
11812;DHT22;5963;50.184;9.162;2022-12-19T09:23:10;0.10;99.90
11812;DHT22;5963;50.184;9.162;2022-12-19T09:25:41;0.10;99.90
11812;DHT22;5963;50.184;9.162;2022-12-19T09:28:10;0.10;99.90
11812;DHT22;5963;50.184;9.162;2022-12-19T09:30:59;0.10;99.90
11812;DHT22;5963;50.184;9.162;2022-12-19T09:33:30;0.20;99.90
11812;DHT22;5963;50.184;9.162;2022-12-19T09:36:12;0.30;99.90
11812;DHT22;5963;50.184;9.162;2022-12-19T09:38:43;0.40;99.90
11812;DHT22;5963;50.184;9.162;2022-12-19T09:41:38;0.40;99.90
11812;DHT22;5963;50.184;9.162;2022-12-19T09:44:18;0.30;99.90
11812;DHT22;5963;50.184;9.162;2022-12-19T09:46:54;0.40;99.90
11812;DHT22;5963;50.184;9.162;2022-12-19T09:49:27;0.50;99.90
11812;DHT22;5963;50.184;9.162;2022-12-19T09:52:02;0.50;99.90
11812;DHT22;5963;50.184;9.162;2022-12-19T09:54:37;0.50;99.90
11812;DHT22;5963;50.184;9.162;2022-12-19T09:57:13;0.60;99.90
11812;DHT22;5963;50.184;9.162;2022-12-19T09:59:47;0.70;99.90
11812;DHT22;5963;50.184;9.162;2022-12-19T10:02:30;0.70;99.90
11812;DHT22;5963;50.184;9.162;2022-12-19T10:05:08;0.90;99.90
11812;DHT22;5963;50.184;9.162;2022-12-19T10:08:00;0.90;99.90
11812;DHT22;5963;50.184;9.162;2022-12-19T10:10:45;1.00;99.90
11812;DHT22;5963;50.184;9.162;2022-12-19T10:13:51;1.00;99.90
11812;DHT22;5963;50.184;9.162;2022-12-19T10:16:28;0.90;99.90
11812;DHT22;5963;50.184;9.162;2022-12-19T10:19:04;0.90;99.90
11812;DHT22;5963;50.184;9.162;2022-12-19T10:21:38;0.80;99.90
11812;DHT22;5963;50.184;9.162;2022-12-19T10:24:48;0.70;99.90
11812;DHT22;5963;50.184;9.162;2022-12-19T10:27:39;0.70;99.90
11812;DHT22;5963;50.184;9.162;2022-12-19T10:30:31;0.70;99.90
11812;DHT22;5963;50.184;9.162;2022-12-19T10:33:10;0.70;99.90
11812;DHT22;5963;50.184;9.162;2022-12-19T10:35:53;0.80;99.90
11812;DHT22;5963;50.184;9.162;2022-12-19T10:38:35;0.70;99.90
11812;DHT22;5963;50.184;9.162;2022-12-19T10:41:21;0.70;99.90
11812;DHT22;5963;50.184;9.162;2022-12-19T10:43:56;0.70;99.90
11812;DHT22;5963;50.184;9.162;2022-12-19T10:46:37;0.60;99.90
11812;DHT22;5963;50.184;9.162;2022-12-19T10:49:10;0.70;99.90
11812;DHT22;5963;50.184;9.162;2022-12-19T10:51:42;0.70;99.90
11812;DHT22;5963;50.184;9.162;2022-12-19T10:54:21;0.80;99.90
11812;DHT22;5963;50.184;9.162;2022-12-19T10:57:17;0.70;99.90
11812;DHT22;5963;50.184;9.162;2022-12-19T10:59:54;0.70;99.90
11812;DHT22;5963;50.184;9.162;2022-12-19T11:02:31;0.70;99.90
11812;DHT22;5963;50.184;9.162;2022-12-19T11:05:04;0.80;99.90
11812;DHT22;5963;50.184;9.162;2022-12-19T11:07:34;0.70;99.90
11812;DHT22;5963;50.184;9.162;2022-12-19T11:10:12;0.80;99.90
11812;DHT22;5963;50.184;9.162;2022-12-19T11:13:18;0.90;99.90
11812;DHT22;5963;50.184;9.162;2022-12-19T11:16:09;1.00;99.90
11812;DHT22;5963;50.184;9.162;2022-12-19T11:19:00;1.00;99.90
11812;DHT22;5963;50.184;9.162;2022-12-19T11:21:50;1.00;99.90
11812;DHT22;5963;50.184;9.162;2022-12-19T11:24:42;0.90;99.90
11812;DHT22;5963;50.184;9.162;2022-12-19T11:27:36;1.00;99.90
11812;DHT22;5963;50.184;9.162;2022-12-19T11:30:28;1.00;99.90
11812;DHT22;5963;50.184;9.162;2022-12-19T11:33:19;1.00;99.90
11812;DHT22;5963;50.184;9.162;2022-12-19T11:35:52;1.00;99.90
11812;DHT22;5963;50.184;9.162;2022-12-19T11:38:38;1.00;99.90
11812;DHT22;5963;50.184;9.162;2022-12-19T11:41:15;1.00;99.90
11812;DHT22;5963;50.184;9.162;2022-12-19T11:43:49;1.00;99.90
11812;DHT22;5963;50.184;9.162;2022-12-19T11:46:29;1.10;99.90
11812;DHT22;5963;50.184;9.162;2022-12-19T11:49:03;1.20;99.90
11812;DHT22;5963;50.184;9.162;2022-12-19T11:51:42;1.20;99.90
11812;DHT22;5963;50.184;9.162;2022-12-19T11:54:18;1.10;99.90
11812;DHT22;5963;50.184;9.162;2022-12-19T11:56:49;1.00;99.90
11812;DHT22;5963;50.184;9.162;2022-12-19T11:59:23;1.00;99.90
11812;DHT22;5963;50.184;9.162;2022-12-19T12:02:02;1.10;99.90
11812;DHT22;5963;50.184;9.162;2022-12-19T12:05:08;1.10;99.90
11812;DHT22;5963;50.184;9.162;2022-12-19T12:07:56;1.20;99.90
11812;DHT22;5963;50.184;9.162;2022-12-19T12:10:57;1.30;99.90
11812;DHT22;5963;50.184;9.162;2022-12-19T12:14:04;1.30;99.90
11812;DHT22;5963;50.184;9.162;2022-12-19T12:20:18;1.40;99.90
11812;DHT22;5963;50.184;9.162;2022-12-19T12:23:23;1.50;99.90
11812;DHT22;5963;50.184;9.162;2022-12-19T12:26:22;1.50;99.90
11812;DHT22;5963;50.184;9.162;2022-12-19T12:29:18;1.60;99.90
11812;DHT22;5963;50.184;9.162;2022-12-19T12:32:21;1.70;99.90
11812;DHT22;5963;50.184;9.162;2022-12-19T12:35:25;1.70;99.90
11812;DHT22;5963;50.184;9.162;2022-12-19T12:38:32;1.80;99.90
11812;DHT22;5963;50.184;9.162;2022-12-19T12:41:22;1.80;99.90
11812;DHT22;5963;50.184;9.162;2022-12-19T12:44:14;1.70;99.90
11812;DHT22;5963;50.184;9.162;2022-12-19T12:46:56;1.80;99.90
11812;DHT22;5963;50.184;9.162;2022-12-19T12:49:34;1.80;99.90
11812;DHT22;5963;50.184;9.162;2022-12-19T12:52:10;1.90;99.90
11812;DHT22;5963;50.184;9.162;2022-12-19T12:54:46;1.90;99.90
11812;DHT22;5963;50.184;9.162;2022-12-19T12:57:18;2.00;99.90
11812;DHT22;5963;50.184;9.162;2022-12-19T13:03:05;1.70;99.90
11812;DHT22;5963;50.184;9.162;2022-12-19T13:05:50;1.60;99.90
11812;DHT22;5963;50.184;9.162;2022-12-19T13:08:38;1.50;99.90
11812;DHT22;5963;50.184;9.162;2022-12-19T13:11:39;1.50;99.90
11812;DHT22;5963;50.184;9.162;2022-12-19T13:14:44;1.50;99.90
11812;DHT22;5963;50.184;9.162;2022-12-19T13:17:23;1.40;99.90
11812;DHT22;5963;50.184;9.162;2022-12-19T13:19:54;1.50;99.90
11812;DHT22;5963;50.184;9.162;2022-12-19T13:22:41;1.50;99.90
11812;DHT22;5963;50.184;9.162;2022-12-19T13:25:47;1.60;99.90
11812;DHT22;5963;50.184;9.162;2022-12-19T13:28:51;1.50;99.90
11812;DHT22;5963;50.184;9.162;2022-12-19T13:31:21;1.60;99.90
11812;DHT22;5963;50.184;9.162;2022-12-19T13:34:09;1.70;99.90
11812;DHT22;5963;50.184;9.162;2022-12-19T13:36:45;1.70;99.90
11812;DHT22;5963;50.184;9.162;2022-12-19T13:39:40;1.80;99.90
11812;DHT22;5963;50.184;9.162;2022-12-19T13:42:34;1.80;99.90
11812;DHT22;5963;50.184;9.162;2022-12-19T13:45:46;1.80;99.90
11812;DHT22;5963;50.184;9.162;2022-12-19T13:48:21;1.70;99.90
11812;DHT22;5963;50.184;9.162;2022-12-19T13:50:55;1.70;99.90
11812;DHT22;5963;50.184;9.162;2022-12-19T13:53:26;1.80;99.90
11812;DHT22;5963;50.184;9.162;2022-12-19T13:56:01;1.70;99.90
11812;DHT22;5963;50.184;9.162;2022-12-19T13:58:47;1.70;99.90
11812;DHT22;5963;50.184;9.162;2022-12-19T14:01:24;1.60;99.90
11812;DHT22;5963;50.184;9.162;2022-12-19T14:03:54;1.60;99.90
11812;DHT22;5963;50.184;9.162;2022-12-19T14:06:51;1.60;99.90
11812;DHT22;5963;50.184;9.162;2022-12-19T14:09:26;1.60;99.90
11812;DHT22;5963;50.184;9.162;2022-12-19T14:12:20;1.60;99.90
11812;DHT22;5963;50.184;9.162;2022-12-19T14:15:27;1.70;99.90
11812;DHT22;5963;50.184;9.162;2022-12-19T14:18:00;1.80;99.90
11812;DHT22;5963;50.184;9.162;2022-12-19T14:21:06;1.80;99.90
11812;DHT22;5963;50.184;9.162;2022-12-19T14:24:07;1.90;99.90
11812;DHT22;5963;50.184;9.162;2022-12-19T14:26:41;1.80;99.90
11812;DHT22;5963;50.184;9.162;2022-12-19T14:29:36;1.80;99.90
11812;DHT22;5963;50.184;9.162;2022-12-19T14:32:28;1.70;99.90
11812;DHT22;5963;50.184;9.162;2022-12-19T14:35:22;1.70;99.90
11812;DHT22;5963;50.184;9.162;2022-12-19T14:38:20;1.60;99.90
11812;DHT22;5963;50.184;9.162;2022-12-19T14:41:17;1.50;99.90
11812;DHT22;5963;50.184;9.162;2022-12-19T14:44:07;1.50;99.90
11812;DHT22;5963;50.184;9.162;2022-12-19T14:47:07;1.50;99.90
11812;DHT22;5963;50.184;9.162;2022-12-19T14:49:59;1.50;99.90
11812;DHT22;5963;50.184;9.162;2022-12-19T14:52:50;1.70;99.90
11812;DHT22;5963;50.184;9.162;2022-12-19T14:56:02;1.80;99.90
11812;DHT22;5963;50.184;9.162;2022-12-19T14:58:55;1.70;99.90
11812;DHT22;5963;50.184;9.162;2022-12-19T15:01:27;1.80;99.90
11812;DHT22;5963;50.184;9.162;2022-12-19T15:04:01;1.70;99.90
11812;DHT22;5963;50.184;9.162;2022-12-19T15:06:54;1.60;99.90
11812;DHT22;5963;50.184;9.162;2022-12-19T15:09:51;1.60;99.90
11812;DHT22;5963;50.184;9.162;2022-12-19T15:12:54;1.70;99.90
11812;DHT22;5963;50.184;9.162;2022-12-19T15:16:02;1.80;99.90
11812;DHT22;5963;50.184;9.162;2022-12-19T15:18:40;1.70;99.90
11812;DHT22;5963;50.184;9.162;2022-12-19T15:21:12;1.80;99.90
11812;DHT22;5963;50.184;9.162;2022-12-19T15:23:44;1.80;99.90
11812;DHT22;5963;50.184;9.162;2022-12-19T15:26:18;1.80;99.90
11812;DHT22;5963;50.184;9.162;2022-12-19T15:28:50;1.70;99.90
11812;DHT22;5963;50.184;9.162;2022-12-19T15:31:31;1.80;99.90
11812;DHT22;5963;50.184;9.162;2022-12-19T15:34:09;1.80;99.90
11812;DHT22;5963;50.184;9.162;2022-12-19T15:37:02;1.70;99.90
11812;DHT22;5963;50.184;9.162;2022-12-19T15:39:31;1.50;99.90
11812;DHT22;5963;50.184;9.162;2022-12-19T15:42:03;1.40;99.90
11812;DHT22;5963;50.184;9.162;2022-12-19T15:44:35;1.30;99.90
11812;DHT22;5963;50.184;9.162;2022-12-19T15:47:11;1.20;99.90
11812;DHT22;5963;50.184;9.162;2022-12-19T15:49:44;1.20;99.90
11812;DHT22;5963;50.184;9.162;2022-12-19T15:52:17;1.20;99.90
11812;DHT22;5963;50.184;9.162;2022-12-19T15:54:48;1.20;99.90
11812;DHT22;5963;50.184;9.162;2022-12-19T15:57:29;1.10;99.90
11812;DHT22;5963;50.184;9.162;2022-12-19T16:00:03;1.10;99.90
11812;DHT22;5963;50.184;9.162;2022-12-19T16:02:35;1.10;99.90
11812;DHT22;5963;50.184;9.162;2022-12-19T16:05:26;1.10;99.90
11812;DHT22;5963;50.184;9.162;2022-12-19T16:07:57;1.00;99.90
11812;DHT22;5963;50.184;9.162;2022-12-19T16:10:27;1.10;99.90
11812;DHT22;5963;50.184;9.162;2022-12-19T16:13:01;1.10;99.90
11812;DHT22;5963;50.184;9.162;2022-12-19T16:15:32;1.20;99.90
11812;DHT22;5963;50.184;9.162;2022-12-19T16:18:05;1.10;99.90
11812;DHT22;5963;50.184;9.162;2022-12-19T16:20:36;1.10;99.90
11812;DHT22;5963;50.184;9.162;2022-12-19T16:23:06;1.00;99.90
11812;DHT22;5963;50.184;9.162;2022-12-19T16:25:39;1.00;99.90
11812;DHT22;5963;50.184;9.162;2022-12-19T16:28:17;0.90;99.90
11812;DHT22;5963;50.184;9.162;2022-12-19T16:30:48;0.90;99.90
11812;DHT22;5963;50.184;9.162;2022-12-19T16:33:21;0.90;99.90
11812;DHT22;5963;50.184;9.162;2022-12-19T16:35:51;0.90;99.90
11812;DHT22;5963;50.184;9.162;2022-12-19T16:38:36;0.90;99.90
11812;DHT22;5963;50.184;9.162;2022-12-19T16:41:08;0.90;99.90
11812;DHT22;5963;50.184;9.162;2022-12-19T16:43:43;0.80;99.90
11812;DHT22;5963;50.184;9.162;2022-12-19T16:46:18;0.80;99.90
11812;DHT22;5963;50.184;9.162;2022-12-19T16:48:48;0.70;99.90
11812;DHT22;5963;50.184;9.162;2022-12-19T16:51:20;0.80;99.90
11812;DHT22;5963;50.184;9.162;2022-12-19T16:53:51;0.70;99.90
11812;DHT22;5963;50.184;9.162;2022-12-19T16:56:27;0.80;99.90
11812;DHT22;5963;50.184;9.162;2022-12-19T16:59:02;0.80;99.90
11812;DHT22;5963;50.184;9.162;2022-12-19T17:01:33;0.80;99.90
11812;DHT22;5963;50.184;9.162;2022-12-19T17:04:03;0.80;99.90
11812;DHT22;5963;50.184;9.162;2022-12-19T17:06:33;0.70;99.90
11812;DHT22;5963;50.184;9.162;2022-12-19T17:09:02;0.70;99.90